San Sebastian, Spain

3:28 PM CEST on July 24, 2016 (GMT +0200)
Francia - Hendaye | | Change Station

Elev 30 ft 43.35 °N, 1.78 °W | Updated 18 seconds ago

Overcast
Overcast
69.9 °F
Feels Like 69.9 °F
N
3.0
Wind Variable Wind from NE
Gusts 6.0 mph

Today
High -- | Low -- °F
--% Chance of Precip.
Yesterday
High -- | Low -- °F
Precip. -- in
Pressure 30.21 in
Visibility 6.2 miles
Clouds Scattered Clouds 1700 ft
Overcast 3000 ft
Dew Point 62 °F
Humidity 76%
Rainfall 0.04 in
Snow Depth Not available.
6:49 AM 9:37 PM
Waning Gibbous, 76% visible
METAR LESO 241300Z 00000KT 9999 SCT017 OVC030 21/17 Q1023
Pressure 30.21 in
Visibility 6.2 miles
Clouds Scattered Clouds 1700 ft
Overcast 3000 ft
Dew Point 62 °F
Humidity 76%
Rainfall 0.04 in
Snow Depth Not available.
6:49 AM 9:37 PM
Waning Gibbous, 76% visible
METAR LESO 241300Z 00000KT 9999 SCT017 OVC030 21/17 Q1023

10-Day Weather Forecast

×

Almanac

Astronomy

Jul. 24, 2016 Rise Set
Actual Time
Civil Twilight
Nautical Twilight
Astronomical Twilight
Moon
Length of Visible Light
Length of Day
Tomorrow will be .
, % of the Moon is Illuminated

Today's Extremes

Country Highs Country Lows

Community

WunderPhotos

Upload Photos

1,927,057 photos uploaded!

WunderBlog® & News

Nearby

Air Quality

  Air Quality AQ Index Pollutant
Not available.

Snow Depth

Station Depth Elevation

Earthquake Activity

City Distance Mag. Time & Date
Minimum magnitude displayed is 2.5.

Coastal Water Temperatures

Place Temperature

Stations

Nearby Weather Stations

Station Location Temp. Windchill Dew Point Humidity Wind Precip. Elev Updated Type